createdAt,value
2023-02-17T00:01:32.209Z,8.00
2023-02-17T00:04:00.125Z,8.00
2023-02-17T00:06:29.790Z,8.00
2023-02-17T00:08:58.417Z,8.00
2023-02-17T00:11:27.113Z,8.00
2023-02-17T00:13:56.278Z,8.00
2023-02-17T00:16:26.470Z,8.00
2023-02-17T00:18:59.078Z,8.00
2023-02-17T00:21:30.107Z,8.00
2023-02-17T00:23:59.318Z,8.00
2023-02-17T00:26:26.737Z,8.00
2023-02-17T00:28:54.663Z,8.10
2023-02-17T00:31:25.204Z,8.10
2023-02-17T00:33:56.006Z,8.10
2023-02-17T00:36:24.140Z,8.10
2023-02-17T00:38:51.825Z,8.10
2023-02-17T00:41:22.569Z,8.10
2023-02-17T00:43:50.404Z,8.10
2023-02-17T00:46:18.693Z,8.10
2023-02-17T00:48:46.602Z,8.10
2023-02-17T00:51:14.683Z,8.10
2023-02-17T00:53:42.273Z,8.10
2023-02-17T00:56:10.302Z,8.10
2023-02-17T00:58:38.417Z,8.10
2023-02-17T01:01:05.867Z,8.10
2023-02-17T01:03:33.632Z,8.10
2023-02-17T01:06:09.884Z,8.20
2023-02-17T01:08:37.580Z,8.20
2023-02-17T01:11:05.044Z,8.10
2023-02-17T01:13:32.212Z,8.20
2023-02-17T01:15:59.525Z,8.20
2023-02-17T01:18:26.682Z,8.20
2023-02-17T01:20:54.057Z,8.20
2023-02-17T01:23:21.608Z,8.20
2023-02-17T01:25:51.057Z,8.20
2023-02-17T01:28:21.726Z,8.20
2023-02-17T01:30:49.871Z,8.20
2023-02-17T01:33:17.220Z,8.20
2023-02-17T01:35:44.497Z,8.20
2023-02-17T01:38:11.675Z,8.20
2023-02-17T01:40:46.957Z,8.20
2023-02-17T01:43:16.636Z,8.20
2023-02-17T01:45:53.615Z,8.20
2023-02-17T01:48:29.304Z,8.30
2023-02-17T01:51:03.065Z,8.30
2023-02-17T01:53:40.390Z,8.20
2023-02-17T01:56:08.216Z,8.30
2023-02-17T01:58:35.647Z,8.20
2023-02-17T02:01:06.483Z,8.30
2023-02-17T02:03:36.385Z,8.30
2023-02-17T02:06:11.409Z,8.30
2023-02-17T02:08:55.260Z,8.30
2023-02-17T02:11:22.419Z,8.30
2023-02-17T02:13:50.923Z,8.20
2023-02-17T02:16:27.608Z,8.30
2023-02-17T02:19:15.417Z,8.30
2023-02-17T02:21:54.177Z,8.20
2023-02-17T02:24:43.962Z,8.30
2023-02-17T02:27:20.021Z,8.30
2023-02-17T02:29:56.379Z,8.30
2023-02-17T02:32:38.808Z,8.30
2023-02-17T02:35:05.976Z,8.30
2023-02-17T02:38:07.259Z,8.30
2023-02-17T02:40:41.462Z,8.30
2023-02-17T02:43:08.645Z,8.30
2023-02-17T02:45:37.952Z,8.30
2023-02-17T02:48:05.229Z,8.30
2023-02-17T02:51:07.415Z,8.30
2023-02-17T02:53:39.506Z,8.30
2023-02-17T02:56:17.485Z,8.30
2023-02-17T02:59:04.891Z,8.30
2023-02-17T03:01:49.852Z,8.40
2023-02-17T03:04:17.121Z,8.30
2023-02-17T03:07:25.299Z,8.40
2023-02-17T03:09:56.018Z,8.40
2023-02-17T03:12:24.201Z,8.40
2023-02-17T03:14:56.258Z,8.40
2023-02-17T03:17:23.586Z,8.40
2023-02-17T03:19:51.305Z,8.50
2023-02-17T03:22:24.314Z,8.50
2023-02-17T03:24:52.094Z,8.50
2023-02-17T03:27:19.411Z,8.50
2023-02-17T03:29:46.767Z,8.50
2023-02-17T03:32:14.172Z,8.50
2023-02-17T03:34:41.398Z,8.60
2023-02-17T03:37:08.598Z,8.60
2023-02-17T03:39:35.770Z,8.60
2023-02-17T03:42:03.535Z,8.60
2023-02-17T03:44:30.699Z,8.60
2023-02-17T03:46:58.021Z,8.60
2023-02-17T03:49:25.404Z,8.70
2023-02-17T03:51:52.660Z,8.70
2023-02-17T03:54:19.864Z,8.70
2023-02-17T03:56:47.086Z,8.70
2023-02-17T03:59:14.308Z,8.80
2023-02-17T04:01:41.556Z,8.80
2023-02-17T04:04:08.777Z,8.80
2023-02-17T04:06:36.310Z,8.90
2023-02-17T04:09:04.398Z,8.90
2023-02-17T04:11:31.731Z,8.90
2023-02-17T04:13:58.970Z,9.00
2023-02-17T04:16:28.245Z,9.00
2023-02-17T04:18:55.553Z,9.10
2023-02-17T04:21:22.639Z,9.10
2023-02-17T04:23:50.132Z,9.10
2023-02-17T04:26:17.311Z,9.10
2023-02-17T04:28:44.703Z,9.20
2023-02-17T04:31:11.885Z,9.20
2023-02-17T04:33:39.653Z,9.20
2023-02-17T04:36:07.132Z,9.20
2023-02-17T04:38:35.513Z,9.30
2023-02-17T04:41:03.080Z,9.30
2023-02-17T04:43:30.805Z,9.30
2023-02-17T04:45:58.590Z,9.30
2023-02-17T04:48:27.323Z,9.30
2023-02-17T04:50:54.482Z,9.30
2023-02-17T04:53:21.835Z,9.40
2023-02-17T04:55:53.786Z,9.40
2023-02-17T04:58:21.328Z,9.40
2023-02-17T05:00:50.487Z,9.40
2023-02-17T05:03:18.604Z,9.40
2023-02-17T05:05:46.224Z,9.40
2023-02-17T05:08:14.332Z,9.50
2023-02-17T05:10:41.642Z,9.50
2023-02-17T05:13:09.007Z,9.50
2023-02-17T05:15:36.435Z,9.50
2023-02-17T05:18:03.801Z,9.50
2023-02-17T05:20:31.726Z,9.60
2023-02-17T05:22:58.936Z,9.60
2023-02-17T05:25:26.191Z,9.60
2023-02-17T05:27:53.449Z,9.60
2023-02-17T05:30:20.606Z,9.60
2023-02-17T05:32:47.936Z,9.60
2023-02-17T05:35:15.156Z,9.60
2023-02-17T05:37:42.458Z,9.60
2023-02-17T05:40:10.067Z,9.60
2023-02-17T05:42:37.465Z,9.60
2023-02-17T05:45:08.648Z,9.60
2023-02-17T05:47:35.864Z,9.60
2023-02-17T05:50:04.160Z,9.60
2023-02-17T05:52:31.448Z,9.60
2023-02-17T05:54:58.758Z,9.70
2023-02-17T05:57:26.128Z,9.60
2023-02-17T05:59:53.348Z,9.70
2023-02-17T06:02:21.445Z,9.60
2023-02-17T06:04:48.758Z,9.70
2023-02-17T06:07:15.884Z,9.70
2023-02-17T06:09:43.115Z,9.60
2023-02-17T06:12:10.372Z,9.70
2023-02-17T06:14:37.659Z,9.70
2023-02-17T06:17:04.878Z,9.70
2023-02-17T06:19:32.032Z,9.70
2023-02-17T06:21:59.660Z,9.70
2023-02-17T06:24:26.800Z,9.70
2023-02-17T06:26:54.180Z,9.70
2023-02-17T06:29:21.395Z,9.70
2023-02-17T06:31:48.687Z,9.70
2023-02-17T06:34:15.851Z,9.70
2023-02-17T06:36:43.104Z,9.70
2023-02-17T06:39:11.580Z,9.70
2023-02-17T06:41:38.595Z,9.80
2023-02-17T06:44:05.934Z,9.70
2023-02-17T06:46:33.169Z,9.80
2023-02-17T06:49:01.722Z,9.80
2023-02-17T06:51:29.326Z,9.80
2023-02-17T06:53:56.755Z,9.80
2023-02-17T06:56:26.014Z,9.80
2023-02-17T06:58:53.264Z,9.80
2023-02-17T07:01:23.862Z,9.80
2023-02-17T07:03:51.171Z,9.80
2023-02-17T07:06:19.182Z,9.80
2023-02-17T07:08:46.536Z,9.80
2023-02-17T07:11:15.263Z,9.80
2023-02-17T07:13:43.456Z,9.80
2023-02-17T07:16:13.722Z,9.90
2023-02-17T07:18:41.143Z,9.90
2023-02-17T07:21:10.120Z,9.90
2023-02-17T07:23:39.865Z,9.90
2023-02-17T07:26:12.190Z,9.90
2023-02-17T07:28:40.999Z,9.90
2023-02-17T07:31:14.426Z,9.90
2023-02-17T07:33:42.703Z,9.90
2023-02-17T07:36:12.480Z,9.90
2023-02-17T07:38:40.801Z,9.90
2023-02-17T07:41:22.326Z,9.90
2023-02-17T07:43:49.727Z,9.90
2023-02-17T07:46:17.620Z,9.90
2023-02-17T07:48:45.537Z,9.90
2023-02-17T07:51:17.030Z,9.90
2023-02-17T07:53:44.532Z,9.90
2023-02-17T07:56:14.459Z,9.90
2023-02-17T07:58:43.706Z,9.90
2023-02-17T08:01:16.882Z,9.90
2023-02-17T08:03:45.196Z,10.00
2023-02-17T08:06:15.144Z,9.90
2023-02-17T08:09:01.060Z,10.00
2023-02-17T08:11:48.990Z,9.90
2023-02-17T08:14:17.597Z,10.00
2023-02-17T08:16:45.240Z,10.00
2023-02-17T08:19:12.605Z,10.00
2023-02-17T08:21:39.866Z,10.00
2023-02-17T08:24:07.647Z,10.00
2023-02-17T08:26:35.198Z,10.00
2023-02-17T08:29:02.298Z,10.00
2023-02-17T08:31:34.751Z,10.00
2023-02-17T08:34:07.058Z,10.00
2023-02-17T08:36:37.823Z,10.00
2023-02-17T08:39:07.335Z,10.10
2023-02-17T08:41:37.571Z,10.10
2023-02-17T08:44:12.689Z,10.10
2023-02-17T08:46:41.371Z,10.10
2023-02-17T08:49:08.988Z,10.10
2023-02-17T08:51:37.620Z,10.10
2023-02-17T08:54:07.903Z,10.10
2023-02-17T08:56:37.216Z,10.10
2023-02-17T08:59:06.393Z,10.10
2023-02-17T09:01:34.106Z,10.10
2023-02-17T09:04:04.399Z,10.10
2023-02-17T09:07:00.513Z,10.10
2023-02-17T09:09:27.994Z,10.20
2023-02-17T09:11:57.718Z,10.20
2023-02-17T09:14:24.974Z,10.20
2023-02-17T09:16:52.822Z,10.20
2023-02-17T09:19:21.342Z,10.20
2023-02-17T09:21:49.066Z,10.20
2023-02-17T09:24:17.889Z,10.20
2023-02-17T09:26:45.176Z,10.20
2023-02-17T09:29:12.787Z,10.20
2023-02-17T09:31:40.229Z,10.20
2023-02-17T09:34:07.446Z,10.20
2023-02-17T09:36:39.623Z,10.30
2023-02-17T09:39:07.749Z,10.30
2023-02-17T09:41:50.287Z,10.30
2023-02-17T09:44:23.558Z,10.30
2023-02-17T09:47:14.242Z,10.30
2023-02-17T09:49:50.032Z,10.30
2023-02-17T09:52:23.009Z,10.30
2023-02-17T09:54:58.183Z,10.30
2023-02-17T09:57:29.774Z,10.30
2023-02-17T10:00:12.890Z,10.40
2023-02-17T10:03:03.405Z,10.40
2023-02-17T10:05:36.857Z,10.40
2023-02-17T10:08:13.428Z,10.40
2023-02-17T10:11:04.556Z,10.40
2023-02-17T10:13:34.718Z,10.40
2023-02-17T10:16:07.442Z,10.40
2023-02-17T10:18:50.685Z,10.50
2023-02-17T10:21:22.631Z,10.50
2023-02-17T10:23:51.850Z,10.50
2023-02-17T10:27:00.575Z,10.50
2023-02-17T10:29:39.644Z,10.50
2023-02-17T10:32:20.146Z,10.50
2023-02-17T10:35:14.176Z,10.60
2023-02-17T10:37:50.768Z,10.50
2023-02-17T10:40:22.095Z,10.60
2023-02-17T10:42:55.171Z,10.60
2023-02-17T10:45:32.996Z,10.60
2023-02-17T10:48:07.630Z,10.60
2023-02-17T10:50:37.368Z,10.60
2023-02-17T10:53:17.902Z,10.70
2023-02-17T10:55:54.850Z,10.70
2023-02-17T10:58:51.548Z,10.70
2023-02-17T11:01:19.443Z,10.70
2023-02-17T11:03:46.922Z,10.70
2023-02-17T11:06:22.916Z,10.70
2023-02-17T11:08:58.911Z,10.70
2023-02-17T11:11:35.650Z,10.80
2023-02-17T11:14:11.733Z,10.80
2023-02-17T11:17:00.681Z,10.80
2023-02-17T11:19:36.771Z,10.80
2023-02-17T11:22:07.162Z,10.80
2023-02-17T11:24:38.819Z,10.80
2023-02-17T11:27:10.792Z,10.80
2023-02-17T11:29:38.765Z,10.90
2023-02-17T11:32:09.292Z,10.80
2023-02-17T11:34:39.801Z,10.80
2023-02-17T11:37:09.768Z,10.80
2023-02-17T11:39:41.004Z,10.80
2023-02-17T11:42:21.205Z,10.80
2023-02-17T11:44:48.717Z,10.80
2023-02-17T11:47:43.070Z,10.90
2023-02-17T11:50:13.102Z,10.90
2023-02-17T11:53:18.005Z,10.90
2023-02-17T11:56:02.203Z,10.90
2023-02-17T11:58:29.301Z,10.90
2023-02-17T12:01:11.889Z,10.90
2023-02-17T12:04:16.073Z,11.00
2023-02-17T12:07:11.356Z,11.00
2023-02-17T12:09:44.751Z,11.00
2023-02-17T12:12:26.833Z,11.00
2023-02-17T12:15:12.165Z,11.00
2023-02-17T12:18:13.808Z,11.10
2023-02-17T12:20:59.662Z,11.10
2023-02-17T12:23:52.955Z,11.10
2023-02-17T12:26:42.300Z,11.10
2023-02-17T12:29:33.147Z,11.10
2023-02-17T12:32:21.637Z,11.10
2023-02-17T12:35:14.063Z,11.10
2023-02-17T12:37:53.472Z,11.10
2023-02-17T12:40:47.447Z,11.10
2023-02-17T12:43:22.938Z,11.10
2023-02-17T12:45:52.826Z,11.10
2023-02-17T12:48:36.125Z,11.10
2023-02-17T12:51:09.564Z,11.10
2023-02-17T12:53:48.910Z,11.10
2023-02-17T12:56:48.897Z,11.10
2023-02-17T12:59:24.320Z,11.10
2023-02-17T13:01:58.151Z,11.10
2023-02-17T13:04:27.111Z,11.20
2023-02-17T13:07:11.143Z,11.20
2023-02-17T13:09:41.864Z,11.20
2023-02-17T13:12:11.589Z,11.20
2023-02-17T13:14:47.420Z,11.20
2023-02-17T13:17:52.296Z,11.30
2023-02-17T13:20:19.309Z,11.30
2023-02-17T13:22:49.664Z,11.30
2023-02-17T13:25:46.504Z,11.30
2023-02-17T13:28:20.472Z,11.30
2023-02-17T13:30:52.545Z,11.30
2023-02-17T13:33:22.903Z,11.30
2023-02-17T13:35:50.252Z,11.30
2023-02-17T13:38:32.796Z,11.30
2023-02-17T13:41:02.408Z,11.30
2023-02-17T13:43:31.614Z,11.30
2023-02-17T13:46:02.132Z,11.40
2023-02-17T13:48:32.820Z,11.40
2023-02-17T13:51:01.456Z,11.40
2023-02-17T13:53:37.918Z,11.40
2023-02-17T13:56:31.905Z,11.40
2023-02-17T13:59:30.834Z,11.40
2023-02-17T14:02:01.070Z,11.40
2023-02-17T14:04:31.183Z,11.40
2023-02-17T14:07:05.126Z,11.40
2023-02-17T14:09:34.110Z,11.40
2023-02-17T14:12:08.696Z,11.40
2023-02-17T14:14:38.643Z,11.40
2023-02-17T14:17:15.340Z,11.40
2023-02-17T14:19:45.909Z,11.40
2023-02-17T14:22:32.105Z,11.40
2023-02-17T14:25:06.739Z,11.50
2023-02-17T14:27:53.203Z,11.50
2023-02-17T14:30:35.336Z,11.50
2023-02-17T14:33:06.187Z,11.50
2023-02-17T14:35:35.435Z,11.50
2023-02-17T14:38:20.719Z,11.50
2023-02-17T14:40:48.290Z,11.50
2023-02-17T14:43:16.089Z,11.50
2023-02-17T14:45:43.243Z,11.50
2023-02-17T14:48:13.452Z,11.50
2023-02-17T14:50:44.772Z,11.50
2023-02-17T14:53:40.999Z,11.50
2023-02-17T14:56:15.647Z,11.50
2023-02-17T14:58:42.784Z,11.50
2023-02-17T15:01:21.447Z,11.50
2023-02-17T15:03:50.936Z,11.50
2023-02-17T15:06:34.272Z,11.50
2023-02-17T15:09:01.606Z,11.50
2023-02-17T15:11:32.825Z,11.50
2023-02-17T15:14:02.266Z,11.50
2023-02-17T15:16:32.589Z,11.50
2023-02-17T15:18:59.925Z,11.50
2023-02-17T15:21:28.750Z,11.50
2023-02-17T15:23:57.455Z,11.50
2023-02-17T15:26:25.471Z,11.40
2023-02-17T15:28:52.931Z,11.40
2023-02-17T15:31:24.709Z,11.40
2023-02-17T15:33:58.529Z,11.30
2023-02-17T15:36:27.221Z,11.30
2023-02-17T15:38:54.906Z,11.30
2023-02-17T15:41:26.318Z,11.10
2023-02-17T15:43:55.542Z,11.10
2023-02-17T15:46:31.004Z,11.00
2023-02-17T15:48:58.491Z,10.90
2023-02-17T15:51:29.072Z,10.80
2023-02-17T15:53:56.083Z,10.80
2023-02-17T15:56:27.339Z,10.70
2023-02-17T15:58:58.431Z,10.70
2023-02-17T16:01:34.146Z,10.60
2023-02-17T16:04:02.032Z,10.50
2023-02-17T16:06:29.913Z,10.50
2023-02-17T16:08:59.093Z,10.50
2023-02-17T16:11:27.790Z,10.40
2023-02-17T16:13:55.502Z,10.40
2023-02-17T16:16:26.350Z,10.30
2023-02-17T16:18:53.782Z,10.30
2023-02-17T16:21:21.353Z,10.20
2023-02-17T16:23:48.828Z,10.20
2023-02-17T16:26:27.294Z,10.20
2023-02-17T16:28:54.901Z,10.10
2023-02-17T16:31:23.716Z,10.10
2023-02-17T16:33:51.958Z,10.10
2023-02-17T16:36:21.465Z,10.00
2023-02-17T16:38:53.562Z,9.90
2023-02-17T16:41:21.379Z,9.90
2023-02-17T16:43:48.757Z,9.80
2023-02-17T16:46:31.449Z,9.80
2023-02-17T16:49:00.408Z,9.70
2023-02-17T16:51:28.064Z,9.70
2023-02-17T16:53:55.273Z,9.70
2023-02-17T16:56:28.990Z,9.60
2023-02-17T16:58:56.318Z,9.60
2023-02-17T17:01:24.395Z,9.50
2023-02-17T17:03:55.025Z,9.40
2023-02-17T17:06:29.345Z,9.40
2023-02-17T17:08:57.329Z,9.30
2023-02-17T17:11:26.325Z,9.30
2023-02-17T17:13:53.688Z,9.30
2023-02-17T17:16:31.147Z,9.20
2023-02-17T17:18:59.461Z,9.20
2023-02-17T17:21:29.479Z,9.20
2023-02-17T17:23:56.889Z,9.10
2023-02-17T17:26:26.393Z,9.10
2023-02-17T17:28:54.753Z,9.00
2023-02-17T17:31:23.367Z,9.00
2023-02-17T17:33:56.895Z,9.00
2023-02-17T17:36:30.436Z,8.90
2023-02-17T17:38:59.391Z,9.00
2023-02-17T17:41:29.026Z,8.90
2023-02-17T17:43:58.271Z,8.90
2023-02-17T17:46:31.846Z,8.80
2023-02-17T17:49:00.764Z,8.80
2023-02-17T17:51:33.688Z,8.80
2023-02-17T17:54:01.567Z,8.70
2023-02-17T17:56:31.536Z,8.70
2023-02-17T17:59:01.206Z,8.70
2023-02-17T18:01:30.579Z,8.70
2023-02-17T18:03:59.856Z,8.60
2023-02-17T18:06:31.505Z,8.60
2023-02-17T18:09:05.224Z,8.60
2023-02-17T18:11:33.703Z,8.50
2023-02-17T18:14:05.599Z,8.50
2023-02-17T18:16:34.293Z,8.50
2023-02-17T18:19:04.947Z,8.50
2023-02-17T18:21:32.134Z,8.50
2023-02-17T18:23:59.417Z,8.40
2023-02-17T18:26:29.496Z,8.40
2023-02-17T18:28:57.930Z,8.40
2023-02-17T18:31:29.701Z,8.40
2023-02-17T18:33:57.385Z,8.40
2023-02-17T18:36:27.353Z,8.40
2023-02-17T18:38:54.905Z,8.30
2023-02-17T18:41:29.670Z,8.30
2023-02-17T18:43:58.549Z,8.30
2023-02-17T18:46:27.284Z,8.30
2023-02-17T18:48:55.707Z,8.20
2023-02-17T18:51:24.364Z,8.20
2023-02-17T18:53:52.506Z,8.20
2023-02-17T18:56:23.837Z,8.20
2023-02-17T18:58:53.296Z,8.20
2023-02-17T19:01:24.336Z,8.20
2023-02-17T19:03:52.335Z,8.20
2023-02-17T19:06:23.254Z,8.20
2023-02-17T19:08:52.643Z,8.20
2023-02-17T19:11:22.157Z,8.20
2023-02-17T19:13:49.773Z,8.10
2023-02-17T19:16:21.915Z,8.20
2023-02-17T19:18:49.403Z,8.20
2023-02-17T19:21:17.009Z,8.20
2023-02-17T19:23:46.378Z,8.20
2023-02-17T19:26:14.727Z,8.20
2023-02-17T19:28:42.907Z,8.20
2023-02-17T19:31:16.590Z,8.20
2023-02-17T19:33:45.211Z,8.20
2023-02-17T19:36:18.637Z,8.20
2023-02-17T19:38:47.386Z,8.20
2023-02-17T19:41:15.596Z,8.20
2023-02-17T19:43:43.832Z,8.10
2023-02-17T19:46:15.826Z,8.20
2023-02-17T19:48:43.083Z,8.20
2023-02-17T19:51:14.091Z,8.20
2023-02-17T19:53:43.340Z,8.10
2023-02-17T19:56:25.265Z,8.10
2023-02-17T19:58:53.170Z,8.10
2023-02-17T20:01:23.970Z,8.20
2023-02-17T20:03:52.031Z,8.20
2023-02-17T20:06:22.157Z,8.20
2023-02-17T20:08:55.985Z,8.10
2023-02-17T20:11:23.403Z,8.20
2023-02-17T20:13:50.690Z,8.20
2023-02-17T20:16:18.969Z,8.10
2023-02-17T20:18:48.630Z,8.20
2023-02-17T20:21:18.799Z,8.10
2023-02-17T20:23:46.253Z,8.10
2023-02-17T20:26:17.702Z,8.10
2023-02-17T20:28:45.414Z,8.10
2023-02-17T20:31:16.010Z,8.10
2023-02-17T20:33:43.494Z,8.10
2023-02-17T20:36:12.237Z,8.10
2023-02-17T20:38:41.969Z,8.10
2023-02-17T20:41:10.401Z,8.10
2023-02-17T20:43:38.920Z,8.00
2023-02-17T20:46:07.409Z,8.10
2023-02-17T20:48:34.967Z,8.10
2023-02-17T20:51:04.344Z,8.10
2023-02-17T20:53:31.818Z,8.10
2023-02-17T20:55:59.058Z,8.10
2023-02-17T20:58:30.631Z,8.00
2023-02-17T21:00:58.031Z,8.10
2023-02-17T21:03:25.541Z,8.10
2023-02-17T21:05:52.707Z,8.00
2023-02-17T21:08:19.924Z,8.10
2023-02-17T21:10:47.062Z,8.00
2023-02-17T21:13:16.932Z,8.00
2023-02-17T21:15:44.236Z,8.00
2023-02-17T21:18:11.448Z,8.10
2023-02-17T21:20:38.545Z,8.00
2023-02-17T21:23:06.267Z,8.00
2023-02-17T21:25:33.668Z,8.00
2023-02-17T21:28:01.107Z,8.00
2023-02-17T21:30:28.606Z,8.00
2023-02-17T21:32:56.885Z,8.00
2023-02-17T21:35:24.042Z,8.00
2023-02-17T21:37:51.501Z,8.00
2023-02-17T21:40:18.799Z,8.00
2023-02-17T21:43:04.385Z,8.00
2023-02-17T21:45:38.993Z,8.00
2023-02-17T21:48:07.738Z,8.00
2023-02-17T21:50:37.940Z,7.90
2023-02-17T21:53:05.478Z,7.90
2023-02-17T21:55:33.527Z,7.90
2023-02-17T21:58:02.848Z,8.00
2023-02-17T22:00:30.328Z,7.90
2023-02-17T22:02:57.639Z,7.90
2023-02-17T22:05:24.760Z,7.90
2023-02-17T22:07:51.933Z,7.90
2023-02-17T22:10:19.125Z,7.90
2023-02-17T22:12:46.355Z,7.90
2023-02-17T22:15:16.302Z,7.90
2023-02-17T22:17:44.213Z,7.90
2023-02-17T22:20:12.010Z,7.90
2023-02-17T22:22:39.184Z,7.90
2023-02-17T22:25:06.843Z,7.90
2023-02-17T22:27:34.246Z,7.90
2023-02-17T22:30:01.675Z,7.90
2023-02-17T22:32:28.920Z,7.90
2023-02-17T22:34:56.289Z,7.90
2023-02-17T22:37:23.507Z,7.90
2023-02-17T22:39:56.429Z,7.90
2023-02-17T22:42:24.719Z,7.90
2023-02-17T22:44:52.021Z,7.90
2023-02-17T22:47:19.445Z,7.80
2023-02-17T22:49:46.938Z,7.80
2023-02-17T22:52:14.627Z,7.80
2023-02-17T22:54:44.606Z,7.70
2023-02-17T22:57:11.679Z,7.70
2023-02-17T22:59:38.842Z,7.70
2023-02-17T23:02:06.059Z,7.70
2023-02-17T23:04:33.346Z,7.70
2023-02-17T23:07:00.729Z,7.70
2023-02-17T23:09:27.981Z,7.60
2023-02-17T23:11:55.210Z,7.60
2023-02-17T23:14:33.357Z,7.60
2023-02-17T23:17:03.591Z,7.60
2023-02-17T23:19:31.171Z,7.60
2023-02-17T23:22:01.807Z,7.60
2023-02-17T23:24:29.543Z,7.60
2023-02-17T23:27:00.709Z,7.50
2023-02-17T23:29:31.481Z,7.50
2023-02-17T23:31:59.553Z,7.50
2023-02-17T23:34:28.704Z,7.50
2023-02-17T23:36:56.095Z,7.40
2023-02-17T23:39:23.323Z,7.40
2023-02-17T23:41:50.818Z,7.40
2023-02-17T23:44:21.403Z,7.40
2023-02-17T23:46:48.548Z,7.30
2023-02-17T23:49:17.566Z,7.30
2023-02-17T23:51:47.053Z,7.30
2023-02-17T23:54:14.873Z,7.30
2023-02-17T23:56:42.727Z,7.30
2023-02-17T23:59:10.247Z,7.30
